Time,TemperatureF,DewpointF,PressureIn,WindDirection,WindDirectionDegrees,WindSpeedMPH,WindSpeedGustMPH,Humidity,HourlyPrecipIn,Conditions,Clouds,dailyrainin,SoftwareType,DateUTC
2013-01-24 00:10:00,8.8,8.3,30.14,SW,225,0.0,-999.0,98,-99.99,,,0.00,Acu-Link.com,2013-01-24 05:10:00,
2013-01-24 00:25:00,9.1,8.7,30.13,SW,225,0.0,-999.0,98,-99.99,,,0.00,Acu-Link.com,2013-01-24 05:25:00,
2013-01-24 00:40:00,8.8,8.3,30.12,SW,225,0.0,-999.0,98,-99.99,,,0.00,Acu-Link.com,2013-01-24 05:40:00,
2013-01-24 00:56:00,8.8,8.3,30.11,SW,225,0.0,-999.0,98,-99.99,,,0.00,Acu-Link.com,2013-01-24 05:56:00,
2013-01-24 01:11:00,8.4,8.0,30.12,SW,225,0.0,-999.0,98,-99.99,,,0.00,Acu-Link.com,2013-01-24 06:11:00,
2013-01-24 01:26:00,8.1,7.6,30.12,SW,225,0.0,-999.0,98,-99.99,,,0.00,Acu-Link.com,2013-01-24 06:26:00,
2013-01-24 01:41:00,8.2,7.8,30.11,SW,225,0.0,-999.0,98,-99.99,,,0.00,Acu-Link.com,2013-01-24 06:41:00,
2013-01-24 01:56:00,7.7,7.3,30.11,SW,225,0.0,-999.0,98,-99.99,,,0.00,Acu-Link.com,2013-01-24 06:56:00,
2013-01-24 02:12:00,7.5,7.1,30.11,SW,225,0.0,-999.0,98,-99.99,,,0.00,Acu-Link.com,2013-01-24 07:12:00,
2013-01-24 02:27:00,7.3,6.9,30.10,SW,225,0.0,-999.0,98,-99.99,,,0.00,Acu-Link.com,2013-01-24 07:27:00,
2013-01-24 02:42:00,7.0,6.5,30.10,SW,225,0.0,-999.0,98,-99.99,,,0.00,Acu-Link.com,2013-01-24 07:42:00,
2013-01-24 02:57:00,6.8,6.4,30.09,SW,225,0.0,-999.0,98,-99.99,,,0.00,Acu-Link.com,2013-01-24 07:57:00,
2013-01-24 03:12:00,7.9,7.4,30.09,SW,225,0.0,-999.0,98,-99.99,,,0.00,Acu-Link.com,2013-01-24 08:12:00,
2013-01-24 03:28:00,8.1,7.6,30.09,SW,225,0.0,-999.0,98,-99.99,,,0.00,Acu-Link.com,2013-01-24 08:28:00,
2013-01-24 03:43:00,7.9,7.4,30.10,SW,225,0.0,-999.0,98,-99.99,,,0.00,Acu-Link.com,2013-01-24 08:43:00,
2013-01-24 03:58:00,7.3,6.9,30.09,SW,225,0.0,-999.0,98,-99.99,,,0.00,Acu-Link.com,2013-01-24 08:58:00,
2013-01-24 04:16:00,7.3,6.9,30.09,SW,225,0.0,-999.0,98,-99.99,,,0.00,Acu-Link.com,2013-01-24 09:16:00,
2013-01-24 04:31:00,7.7,7.3,30.10,SW,225,0.0,-999.0,98,-99.99,,,0.00,Acu-Link.com,2013-01-24 09:31:00,
2013-01-24 04:46:00,7.7,7.3,30.10,SW,225,0.0,-999.0,98,-99.99,,,0.00,Acu-Link.com,2013-01-24 09:46:00,
2013-01-24 05:01:00,7.2,6.7,30.10,SW,225,0.0,-999.0,98,-99.99,,,0.00,Acu-Link.com,2013-01-24 10:01:00,
2013-01-24 05:16:00,7.3,6.9,30.10,SW,225,0.0,-999.0,98,-99.99,,,0.00,Acu-Link.com,2013-01-24 10:16:00,
2013-01-24 05:31:00,8.1,7.6,30.11,SW,225,0.0,-999.0,98,-99.99,,,0.00,Acu-Link.com,2013-01-24 10:31:00,
2013-01-24 05:47:00,8.1,7.6,30.12,SW,225,0.0,-999.0,98,-99.99,,,0.00,Acu-Link.com,2013-01-24 10:47:00,
2013-01-24 06:02:00,7.7,7.3,30.12,SW,225,0.0,-999.0,98,-99.99,,,0.00,Acu-Link.com,2013-01-24 11:02:00,
2013-01-24 06:17:00,7.7,7.3,30.13,SW,225,0.0,-999.0,98,-99.99,,,0.00,Acu-Link.com,2013-01-24 11:17:00,
2013-01-24 06:32:00,7.7,7.3,30.14,SW,225,0.0,-999.0,98,-99.99,,,0.00,Acu-Link.com,2013-01-24 11:32:00,
2013-01-24 06:48:00,7.3,6.9,30.14,SW,225,0.0,-999.0,98,-99.99,,,0.00,Acu-Link.com,2013-01-24 11:48:00,
2013-01-24 07:03:00,7.2,6.7,30.14,SW,225,0.0,-999.0,98,-99.99,,,0.00,Acu-Link.com,2013-01-24 12:03:00,
2013-01-24 07:18:00,7.0,6.5,30.14,SW,225,0.0,-999.0,98,-99.99,,,0.00,Acu-Link.com,2013-01-24 12:18:00,
2013-01-24 07:33:00,7.0,6.5,30.15,SW,225,0.0,-999.0,98,-99.99,,,0.00,Acu-Link.com,2013-01-24 12:33:00,
2013-01-24 07:48:00,7.3,6.9,30.15,SW,225,0.0,-999.0,98,-99.99,,,0.00,Acu-Link.com,2013-01-24 12:48:00,
2013-01-24 08:04:00,7.7,7.3,30.16,SW,225,0.0,-999.0,98,-99.99,,,0.00,Acu-Link.com,2013-01-24 13:04:00,
2013-01-24 08:19:00,8.4,8.0,30.16,SE,135,0.0,-999.0,98,-99.99,,,0.00,Acu-Link.com,2013-01-24 13:19:00,
2013-01-24 08:34:00,9.7,9.2,30.17,SSW,202,0.0,-999.0,98,-99.99,,,0.00,Acu-Link.com,2013-01-24 13:34:00,
2013-01-24 08:49:00,10.6,10.1,30.17,ESE,112,0.0,-999.0,98,-99.99,,,0.00,Acu-Link.com,2013-01-24 13:49:00,
2013-01-24 09:04:00,11.7,10.0,30.17,SW,225,0.0,-999.0,93,-99.99,,,0.00,Acu-Link.com,2013-01-24 14:04:00,
2013-01-24 09:20:00,12.7,8.3,30.18,West,270,0.0,-999.0,82,-99.99,,,0.00,Acu-Link.com,2013-01-24 14:20:00,
2013-01-24 09:35:00,14.0,6.0,30.18,ESE,112,0.0,-999.0,70,-99.99,,,0.00,Acu-Link.com,2013-01-24 14:35:00,
2013-01-24 09:50:00,15.6,6.3,30.19,WSW,247,4.7,-999.0,66,-99.99,,,0.00,Acu-Link.com,2013-01-24 14:50:00,
2013-01-24 10:05:00,15.4,5.8,30.19,South,180,0.0,-999.0,65,-99.99,,,0.00,Acu-Link.com,2013-01-24 15:05:00,
2013-01-24 10:20:00,16.2,5.1,30.19,WNW,292,5.1,-999.0,61,-99.99,,,0.00,Acu-Link.com,2013-01-24 15:20:00,
2013-01-24 10:36:00,16.9,5.1,30.20,NNE,22,4.3,-999.0,59,-99.99,,,0.00,Acu-Link.com,2013-01-24 15:36:00,
2013-01-24 10:51:00,17.6,4.6,30.20,SSE,157,8.9,-999.0,56,-99.99,,,0.00,Acu-Link.com,2013-01-24 15:51:00,
2013-01-24 11:06:00,18.1,3.5,30.20,ESE,112,0.0,-999.0,52,-99.99,,,0.00,Acu-Link.com,2013-01-24 16:06:00,
2013-01-24 11:21:00,18.9,2.5,30.19,West,270,3.1,-999.0,48,-99.99,,,0.00,Acu-Link.com,2013-01-24 16:21:00,
2013-01-24 11:36:00,19.0,1.7,30.18,West,270,5.1,-999.0,46,-99.99,,,0.00,Acu-Link.com,2013-01-24 16:36:00,
2013-01-24 11:52:00,19.8,3.3,30.18,West,270,7.8,-999.0,48,-99.99,,,0.00,Acu-Link.com,2013-01-24 16:52:00,
2013-01-24 12:07:00,19.9,3.9,30.19,SE,135,6.3,-999.0,49,-99.99,,,0.00,Acu-Link.com,2013-01-24 17:07:00,
2013-01-24 12:22:00,20.7,4.1,30.18,SSE,157,4.7,-999.0,48,-99.99,,,0.00,Acu-Link.com,2013-01-24 17:22:00,
2013-01-24 12:37:00,22.1,4.5,30.18,WNW,292,10.3,-999.0,46,-99.99,,,0.00,Acu-Link.com,2013-01-24 17:37:00,
2013-01-24 12:52:00,21.9,3.9,30.18,South,180,4.7,-999.0,45,-99.99,,,0.00,Acu-Link.com,2013-01-24 17:52:00,
2013-01-24 13:08:00,22.3,3.2,30.18,West,270,16.6,-999.0,43,-99.99,,,0.00,Acu-Link.com,2013-01-24 18:08:00,
2013-01-24 13:23:00,21.4,2.4,30.18,WNW,292,16.6,-999.0,43,-99.99,,,0.00,Acu-Link.com,2013-01-24 18:23:00,
2013-01-24 13:38:00,21.4,1.9,30.19,West,270,5.8,-999.0,42,-99.99,,,0.00,Acu-Link.com,2013-01-24 18:38:00,
2013-01-24 13:53:00,21.7,2.7,30.18,ESE,112,3.1,-999.0,43,-99.99,,,0.00,Acu-Link.com,2013-01-24 18:53:00,
2013-01-24 14:08:00,22.5,3.4,30.19,WNW,292,4.3,-999.0,43,-99.99,,,0.00,Acu-Link.com,2013-01-24 19:08:00,
2013-01-24 14:24:00,23.0,3.4,30.20,WSW,247,3.1,-999.0,42,-99.99,,,0.00,Acu-Link.com,2013-01-24 19:24:00,
2013-01-24 14:39:00,22.6,3.0,30.21,NNE,22,11.0,-999.0,42,-99.99,,,0.00,Acu-Link.com,2013-01-24 19:39:00,
2013-01-24 14:54:00,23.0,3.9,30.21,SW,225,2.7,-999.0,43,-99.99,,,0.00,Acu-Link.com,2013-01-24 19:54:00,
2013-01-24 15:09:00,22.5,2.9,30.22,SE,135,4.3,-999.0,42,-99.99,,,0.00,Acu-Link.com,2013-01-24 20:09:00,
2013-01-24 15:25:00,21.9,2.9,30.22,West,270,2.7,-999.0,43,-99.99,,,0.00,Acu-Link.com,2013-01-24 20:25:00,
2013-01-24 15:40:00,21.7,3.2,30.23,ENE,67,7.4,-999.0,44,-99.99,,,0.00,Acu-Link.com,2013-01-24 20:40:00,
2013-01-24 15:55:00,21.7,3.2,30.23,West,270,4.7,-999.0,44,-99.99,,,0.00,Acu-Link.com,2013-01-24 20:55:00,
2013-01-24 16:10:00,21.6,3.1,30.23,NNE,22,6.3,-999.0,44,-99.99,,,0.00,Acu-Link.com,2013-01-24 21:10:00,
2013-01-24 16:25:00,21.4,4.3,30.24,ENE,67,5.1,-999.0,47,-99.99,,,0.00,Acu-Link.com,2013-01-24 21:25:00,
2013-01-24 16:40:00,20.8,3.4,30.25,NNE,22,3.8,-999.0,46,-99.99,,,0.00,Acu-Link.com,2013-01-24 21:40:00,
2013-01-24 16:56:00,20.7,3.2,30.25,West,270,6.3,-999.0,46,-99.99,,,0.00,Acu-Link.com,2013-01-24 21:56:00,
2013-01-24 17:11:00,20.3,2.4,30.26,WNW,292,3.1,-999.0,45,-99.99,,,0.00,Acu-Link.com,2013-01-24 22:11:00,
2013-01-24 17:26:00,19.9,3.4,30.27,WNW,292,4.3,-999.0,48,-99.99,,,0.00,Acu-Link.com,2013-01-24 22:26:00,
2013-01-24 17:41:00,19.8,2.8,30.29,West,270,3.8,-999.0,47,-99.99,,,0.00,Acu-Link.com,2013-01-24 22:41:00,
2013-01-24 17:57:00,19.6,3.1,30.29,SE,135,2.7,-999.0,48,-99.99,,,0.00,Acu-Link.com,2013-01-24 22:57:00,
2013-01-24 18:12:00,-11.0,-45.6,30.30,WNW,292,4.3,-999.0,15,-99.99,,,0.00,Acu-Link.com,2013-01-24 23:12:00,
2013-01-24 18:27:00,18.9,3.3,30.31,West,270,6.3,-999.0,50,-99.99,,,0.00,Acu-Link.com,2013-01-24 23:27:00,
2013-01-24 18:42:00,18.5,3.0,30.31,SSW,202,2.2,-999.0,50,-99.99,,,0.00,Acu-Link.com,2013-01-24 23:42:00,
2013-01-24 18:57:00,18.0,2.9,30.32,SSW,202,0.0,-999.0,51,-99.99,,,0.00,Acu-Link.com,2013-01-24 23:57:00,
2013-01-24 19:13:00,17.6,3.0,30.32,West,270,2.7,-999.0,52,-99.99,,,0.00,Acu-Link.com,2013-01-25 00:13:00,
2013-01-24 19:28:00,17.2,2.7,30.33,SW,225,3.8,-999.0,52,-99.99,,,0.00,Acu-Link.com,2013-01-25 00:28:00,
2013-01-24 19:43:00,16.9,2.7,30.33,SSW,202,2.2,-999.0,53,-99.99,,,0.00,Acu-Link.com,2013-01-25 00:43:00,
2013-01-24 19:58:00,16.7,3.0,30.33,NW,315,7.4,-999.0,54,-99.99,,,0.00,Acu-Link.com,2013-01-25 00:58:00,
2013-01-24 20:14:00,16.3,3.4,30.32,NE,45,0.0,-999.0,56,-99.99,,,0.00,Acu-Link.com,2013-01-25 01:14:00,
2013-01-24 20:29:00,16.2,3.6,30.32,NE,45,3.1,-999.0,57,-99.99,,,0.00,Acu-Link.com,2013-01-25 01:29:00,
2013-01-24 20:44:00,16.0,3.5,30.32,West,270,4.3,-999.0,57,-99.99,,,0.00,Acu-Link.com,2013-01-25 01:44:00,
2013-01-24 20:59:00,16.0,3.5,30.32,East,90,3.1,-999.0,57,-99.99,,,0.00,Acu-Link.com,2013-01-25 01:59:00,
2013-01-24 21:14:00,16.0,3.8,30.32,NE,45,2.2,-999.0,58,-99.99,,,0.00,Acu-Link.com,2013-01-25 02:14:00,
2013-01-24 21:30:00,15.8,3.7,30.34,SW,225,4.7,-999.0,58,-99.99,,,0.00,Acu-Link.com,2013-01-25 02:30:00,
2013-01-24 21:45:00,15.8,3.7,30.34,West,270,4.3,-999.0,58,-99.99,,,0.00,Acu-Link.com,2013-01-25 02:45:00,
2013-01-24 22:00:00,15.4,3.3,30.34,West,270,4.7,-999.0,58,-99.99,,,0.00,Acu-Link.com,2013-01-25 03:00:00,
2013-01-24 22:15:00,15.4,3.3,30.33,West,270,7.4,-999.0,58,-99.99,,,0.00,Acu-Link.com,2013-01-25 03:15:00,
2013-01-24 22:31:00,15.3,3.2,30.33,West,270,3.8,-999.0,58,-99.99,,,0.00,Acu-Link.com,2013-01-25 03:31:00,
2013-01-24 22:46:00,15.1,3.0,30.34,SE,135,1.6,-999.0,58,-99.99,,,0.00,Acu-Link.com,2013-01-25 03:46:00,
2013-01-24 23:01:00,14.9,3.2,30.34,WNW,292,0.0,-999.0,59,-99.99,,,0.00,Acu-Link.com,2013-01-25 04:01:00,
2013-01-24 23:16:00,14.7,3.0,30.35,WNW,292,2.7,-999.0,59,-99.99,,,0.00,Acu-Link.com,2013-01-25 04:16:00,
2013-01-24 23:31:00,14.5,2.9,30.35,West,270,3.1,-999.0,59,-99.99,,,0.00,Acu-Link.com,2013-01-25 04:31:00,
2013-01-24 23:47:00,14.2,2.5,30.36,SW,225,8.3,-999.0,59,-99.99,,,0.00,Acu-Link.com,2013-01-25 04:47:00,